Time;durP1;ratioP1;P1;durP2;ratioP2;P2;SDS_P1;SDS_P2;PMS_P1;PMS_P2;Temp;Humidity;BMP_temperature;BMP_pressure;BME280_temperature;BME280_humidity;BME280_pressure;Samples;Min_cycle;Max_cycle;Signal;HPM_P1;HPM_P2
2023/01/13 00:01:53;;;;;;;0.97;0.90;;;;;;;;;;5063915;28;20240;-78
2023/01/13 00:04:19;;;;;;;0.90;0.60;;;;;;;;;;5076776;28;20176;-79
2023/01/13 00:06:44;;;;;;;1.13;0.70;;;;;;;;;;5076904;28;20201;-79
2023/01/13 00:09:09;;;;;;;1.73;0.90;;;;;;;;;;5073376;28;20180;-78
2023/01/13 00:11:34;;;;;;;1.00;0.80;;;;;;;;;;5071954;28;20268;-79
2023/01/13 00:13:59;;;;;;;2.33;0.90;;;;;;;;;;5076217;28;20175;-78
2023/01/13 00:16:25;;;;;;;0.73;0.73;;;;;;;;;;5065634;28;20178;-79
2023/01/13 00:18:50;;;;;;;0.77;0.60;;;;;;;;;;5066737;28;20219;-78
2023/01/13 00:21:15;;;;;;;1.83;0.90;;;;;;;;;;5084706;28;20188;-78
2023/01/13 00:23:41;;;;;;;1.37;0.50;;;;;;;;;;5071620;28;20214;-78
2023/01/13 00:26:07;;;;;;;0.97;0.70;;;;;;;;;;5072475;28;20195;-78
2023/01/13 00:28:32;;;;;;;2.13;0.80;;;;;;;;;;5064377;28;20178;-78
2023/01/13 00:31:09;;;;;;;1.57;0.80;;;;;;;;;;5066441;28;20169;-78
2023/01/13 00:33:34;;;;;;;1.43;0.90;;;;;;;;;;5068304;28;20241;-79
2023/01/13 00:36:00;;;;;;;1.80;0.83;;;;;;;;;;5068347;28;20260;-79
2023/01/13 00:38:26;;;;;;;0.93;0.80;;;;;;;;;;5070687;28;20202;-79
2023/01/13 00:40:55;;;;;;;1.53;0.70;;;;;;;;;;5072735;28;20228;-78
2023/01/13 00:43:24;;;;;;;0.73;0.70;;;;;;;;;;5072583;28;20206;-78
2023/01/13 00:45:52;;;;;;;0.70;0.70;;;;;;;;;;5073473;28;20174;-78
2023/01/13 00:48:18;;;;;;;0.80;0.80;;;;;;;;;;5066234;28;20171;-79
2023/01/13 00:50:43;;;;;;;1.37;0.70;;;;;;;;;;5069094;28;20212;-79
2023/01/13 00:53:09;;;;;;;0.70;0.70;;;;;;;;;;5066529;28;20197;-79
2023/01/13 00:55:34;;;;;;;0.70;0.70;;;;;;;;;;5084883;28;20189;-79
2023/01/13 00:58:02;;;;;;;0.97;0.90;;;;;;;;;;5063874;28;20185;-78
2023/01/13 01:00:31;;;;;;;1.60;0.97;;;;;;;;;;5063406;28;20186;-78
2023/01/13 01:02:56;;;;;;;0.77;0.63;;;;;;;;;;5068532;28;20255;-78
2023/01/13 01:05:21;;;;;;;1.27;0.83;;;;;;;;;;5066728;28;20178;-78
2023/01/13 01:07:47;;;;;;;1.60;0.87;;;;;;;;;;5063271;28;20403;-78
2023/01/13 01:10:12;;;;;;;0.73;0.73;;;;;;;;;;5066977;28;20235;-79
2023/01/13 01:12:37;;;;;;;0.90;0.57;;;;;;;;;;5078533;28;20181;-78
2023/01/13 01:15:04;;;;;;;0.63;0.63;;;;;;;;;;5066686;28;20177;-79
2023/01/13 01:17:30;;;;;;;0.77;0.70;;;;;;;;;;5070049;28;20186;-78
2023/01/13 01:19:55;;;;;;;0.73;0.60;;;;;;;;;;5072192;28;20177;-79
2023/01/13 01:22:20;;;;;;;1.93;0.77;;;;;;;;;;5065848;28;20201;-79
2023/01/13 01:24:46;;;;;;;2.00;0.90;;;;;;;;;;5071074;28;20197;-78
2023/01/13 01:27:11;;;;;;;0.87;0.63;;;;;;;;;;5067225;28;20182;-79
2023/01/13 01:29:36;;;;;;;1.07;0.80;;;;;;;;;;5082691;28;20258;-79
2023/01/13 01:32:02;;;;;;;1.40;0.73;;;;;;;;;;5072147;28;20180;-79
2023/01/13 01:34:27;;;;;;;1.83;1.00;;;;;;;;;;5070487;28;20274;-78
2023/01/13 01:36:52;;;;;;;0.63;0.63;;;;;;;;;;5061622;28;20249;-78
2023/01/13 01:39:17;;;;;;;1.43;0.63;;;;;;;;;;5077785;28;20181;-79
2023/01/13 01:43:57;;;;;;;0.63;0.50;;;;;;;;;;5063402;28;20182;-79
2023/01/13 01:44:40;;;;;;;0.70;0.70;;;;;;;;;;5078203;28;20169;-79
2023/01/13 01:47:05;;;;;;;0.87;0.80;;;;;;;;;;5063977;28;20265;-79
2023/01/13 01:49:32;;;;;;;0.47;0.47;;;;;;;;;;5060966;28;20269;-78
2023/01/13 01:52:05;;;;;;;0.60;0.60;;;;;;;;;;5072111;28;20183;-79
2023/01/13 01:54:34;;;;;;;1.40;0.60;;;;;;;;;;5068787;28;20191;-79
2023/01/13 01:56:59;;;;;;;1.97;0.73;;;;;;;;;;5065638;28;20219;-79
2023/01/13 01:59:25;;;;;;;1.90;0.97;;;;;;;;;;5064742;28;20331;-79
2023/01/13 02:01:51;;;;;;;0.60;0.60;;;;;;;;;;5063927;28;20220;-78
2023/01/13 02:04:19;;;;;;;1.43;0.67;;;;;;;;;;5070026;28;20174;-78
2023/01/13 02:06:46;;;;;;;1.20;0.67;;;;;;;;;;5063157;28;20228;-78
2023/01/13 02:09:12;;;;;;;0.60;0.60;;;;;;;;;;5080097;28;20213;-79
2023/01/13 02:14:22;;;;;;;0.83;0.80;;;;;;;;;;5069756;28;20278;-78
2023/01/13 02:16:52;;;;;;;0.90;0.90;;;;;;;;;;5069946;28;20177;-79
2023/01/13 02:19:24;;;;;;;0.73;0.70;;;;;;;;;;5072293;28;20221;-79
2023/01/13 02:22:06;;;;;;;0.73;0.73;;;;;;;;;;5072288;28;20193;-79
2023/01/13 02:24:52;;;;;;;2.13;0.80;;;;;;;;;;5078217;28;20173;-78
2023/01/13 02:27:28;;;;;;;2.77;1.00;;;;;;;;;;5063184;28;20208;-78
2023/01/13 02:33:05;;;;;;;0.63;0.63;;;;;;;;;;5058017;28;20176;-78
2023/01/13 02:35:35;;;;;;;3.60;1.43;;;;;;;;;;5057070;28;20224;-79
2023/01/13 02:38:01;;;;;;;2.17;0.90;;;;;;;;;;5068505;28;20178;-79
2023/01/13 02:40:39;;;;;;;0.73;0.70;;;;;;;;;;5061159;28;20177;-78
2023/01/13 02:46:00;;;;;;;2.57;0.97;;;;;;;;;;5064074;28;20188;-79
2023/01/13 02:48:27;;;;;;;1.47;1.03;;;;;;;;;;5085705;28;20178;-79
2023/01/13 02:50:55;;;;;;;0.93;0.90;;;;;;;;;;5074005;28;20187;-79
2023/01/13 02:53:40;;;;;;;0.67;0.67;;;;;;;;;;5077067;28;20192;-79
2023/01/13 02:56:07;;;;;;;1.23;0.73;;;;;;;;;;5071664;28;20197;-79
2023/01/13 02:58:33;;;;;;;1.37;0.80;;;;;;;;;;5064289;28;20174;-79
2023/01/13 03:00:59;;;;;;;0.63;0.63;;;;;;;;;;5068454;28;20190;-79
2023/01/13 03:03:24;;;;;;;2.47;0.90;;;;;;;;;;5070029;28;20197;-79
2023/01/13 03:05:52;;;;;;;1.90;1.27;;;;;;;;;;5062210;28;20188;-78
2023/01/13 03:08:17;;;;;;;1.40;0.80;;;;;;;;;;5068072;28;20169;-78
2023/01/13 03:10:46;;;;;;;1.37;1.00;;;;;;;;;;5063784;28;20224;-78
2023/01/13 03:13:30;;;;;;;0.80;0.80;;;;;;;;;;5068674;28;20193;-79
2023/01/13 03:16:34;;;;;;;1.73;1.20;;;;;;;;;;5058831;28;20178;-78
2023/01/13 03:19:11;;;;;;;2.47;1.10;;;;;;;;;;5010477;28;20185;-78
2023/01/13 03:21:36;;;;;;;1.43;1.23;;;;;;;;;;5056469;28;20185;-79
2023/01/13 03:24:05;;;;;;;2.73;1.10;;;;;;;;;;5062439;28;20178;-79
2023/01/13 03:26:49;;;;;;;2.00;0.87;;;;;;;;;;5067917;28;20195;-79
2023/01/13 03:29:18;;;;;;;1.17;0.80;;;;;;;;;;5072834;28;20178;-79
2023/01/13 03:31:46;;;;;;;1.60;1.00;;;;;;;;;;5069664;28;20230;-78
2023/01/13 03:34:14;;;;;;;0.87;0.73;;;;;;;;;;5069860;28;20189;-79
2023/01/13 03:36:39;;;;;;;1.40;0.80;;;;;;;;;;5072475;28;20225;-79
2023/01/13 03:39:13;;;;;;;4.83;1.23;;;;;;;;;;5070855;28;20166;-79
2023/01/13 03:41:51;;;;;;;1.70;1.03;;;;;;;;;;5073485;28;20178;-79
2023/01/13 03:44:40;;;;;;;2.87;1.00;;;;;;;;;;5093649;28;20171;-79
2023/01/13 03:47:14;;;;;;;0.97;0.80;;;;;;;;;;5061527;28;20180;-78
2023/01/13 03:49:39;;;;;;;1.63;1.00;;;;;;;;;;5069746;28;20207;-79
2023/01/13 03:52:07;;;;;;;1.00;1.00;;;;;;;;;;5082116;28;20221;-78
2023/01/13 03:54:35;;;;;;;0.70;0.70;;;;;;;;;;5072437;28;20183;-78
2023/01/13 03:57:06;;;;;;;0.90;0.90;;;;;;;;;;5068307;28;20181;-78
2023/01/13 03:59:34;;;;;;;1.23;0.87;;;;;;;;;;5078065;28;20200;-78
2023/01/13 04:02:06;;;;;;;1.67;1.00;;;;;;;;;;5067200;28;20202;-79
2023/01/13 04:04:33;;;;;;;1.17;1.00;;;;;;;;;;5080347;28;20200;-79
2023/01/13 04:07:15;;;;;;;0.70;0.70;;;;;;;;;;5067988;28;20180;-79
2023/01/13 04:09:51;;;;;;;2.73;1.20;;;;;;;;;;5086267;28;20179;-79
2023/01/13 04:12:19;;;;;;;1.10;1.00;;;;;;;;;;5066713;28;20195;-79
2023/01/13 04:14:44;;;;;;;1.60;0.70;;;;;;;;;;5066376;28;20340;-78
2023/01/13 04:17:10;;;;;;;1.93;1.10;;;;;;;;;;5068461;28;20176;-79
2023/01/13 04:19:35;;;;;;;1.33;1.23;;;;;;;;;;5081851;28;20241;-78
2023/01/13 04:22:00;;;;;;;2.10;1.10;;;;;;;;;;5083083;28;20205;-78
2023/01/13 04:24:26;;;;;;;0.73;0.70;;;;;;;;;;5071156;28;20178;-78
2023/01/13 04:26:51;;;;;;;1.77;0.97;;;;;;;;;;5068468;28;20265;-78
2023/01/13 04:29:16;;;;;;;1.80;0.93;;;;;;;;;;5064212;28;20219;-78
2023/01/13 04:31:41;;;;;;;2.33;0.60;;;;;;;;;;5072024;28;20181;-79
2023/01/13 04:34:07;;;;;;;0.93;0.93;;;;;;;;;;5061250;28;20275;-79
2023/01/13 04:36:32;;;;;;;0.80;0.80;;;;;;;;;;5066761;28;20242;-78
2023/01/13 04:38:57;;;;;;;1.03;0.90;;;;;;;;;;5073244;28;20189;-79
2023/01/13 04:41:23;;;;;;;0.87;0.80;;;;;;;;;;5072600;28;20168;-79
2023/01/13 04:43:48;;;;;;;0.83;0.83;;;;;;;;;;5078282;28;20229;-79
2023/01/13 04:46:13;;;;;;;3.23;0.83;;;;;;;;;;5068826;28;20181;-79
2023/01/13 04:48:38;;;;;;;1.80;1.20;;;;;;;;;;5065700;28;20174;-79
2023/01/13 04:51:04;;;;;;;2.77;1.53;;;;;;;;;;5072026;28;20175;-79
2023/01/13 04:53:29;;;;;;;2.30;1.17;;;;;;;;;;5072649;28;20205;-79
2023/01/13 04:55:54;;;;;;;1.73;1.10;;;;;;;;;;5070436;28;20173;-79
2023/01/13 04:58:20;;;;;;;2.27;1.07;;;;;;;;;;5067775;28;20199;-79
2023/01/13 05:00:45;;;;;;;3.17;1.20;;;;;;;;;;5068234;28;20188;-78
2023/01/13 05:03:10;;;;;;;2.20;1.40;;;;;;;;;;5061357;28;20205;-79
2023/01/13 05:05:36;;;;;;;0.83;0.83;;;;;;;;;;5060559;28;20175;-79
2023/01/13 05:08:02;;;;;;;1.90;0.90;;;;;;;;;;5063239;28;20180;-78
2023/01/13 05:10:27;;;;;;;1.53;0.90;;;;;;;;;;5071369;28;20256;-78
2023/01/13 05:18:21;;;;;;;1.60;1.50;;;;;;;;;;5068050;28;20189;-79
2023/01/13 05:20:47;;;;;;;0.73;0.73;;;;;;;;;;5064560;28;20185;-79
2023/01/13 05:25:56;;;;;;;1.37;1.27;;;;;;;;;;5071763;28;20239;-79
2023/01/13 05:28:21;;;;;;;4.90;3.20;;;;;;;;;;5064716;28;20216;-79
2023/01/13 05:30:48;;;;;;;2.00;1.80;;;;;;;;;;5061041;28;20268;-79
2023/01/13 05:33:14;;;;;;;1.77;1.47;;;;;;;;;;5071534;28;20202;-79
2023/01/13 05:35:40;;;;;;;1.13;0.70;;;;;;;;;;5066725;28;20296;-78
2023/01/13 05:38:05;;;;;;;1.03;0.93;;;;;;;;;;5080021;28;20205;-78
2023/01/13 05:43:18;;;;;;;1.80;1.70;;;;;;;;;;5072616;28;20278;-79
2023/01/13 05:45:45;;;;;;;0.80;0.80;;;;;;;;;;5060596;28;20177;-78
2023/01/13 05:48:10;;;;;;;0.80;0.80;;;;;;;;;;5072009;28;20184;-79
2023/01/13 05:50:35;;;;;;;4.30;2.10;;;;;;;;;;5074366;28;20183;-79
2023/01/13 05:53:01;;;;;;;1.60;1.50;;;;;;;;;;5070065;28;20189;-78
2023/01/13 05:55:26;;;;;;;1.10;1.10;;;;;;;;;;5062605;28;20185;-79
2023/01/13 05:57:51;;;;;;;1.03;0.90;;;;;;;;;;5066098;28;20185;-79
2023/01/13 06:00:16;;;;;;;1.00;0.90;;;;;;;;;;5070325;28;20182;-79
2023/01/13 06:02:42;;;;;;;0.97;0.73;;;;;;;;;;5069349;28;20301;-79
2023/01/13 06:05:07;;;;;;;0.63;0.63;;;;;;;;;;5065467;28;20244;-79
2023/01/13 06:07:32;;;;;;;1.80;1.70;;;;;;;;;;5075700;28;20215;-79
2023/01/13 06:09:57;;;;;;;3.00;2.70;;;;;;;;;;5072762;28;20174;-78
2023/01/13 06:12:23;;;;;;;1.23;0.50;;;;;;;;;;5081376;28;20200;-78
2023/01/13 06:14:48;;;;;;;0.57;0.57;;;;;;;;;;5064166;28;20240;-79
2023/01/13 06:17:14;;;;;;;0.40;0.40;;;;;;;;;;5071057;28;20177;-79
2023/01/13 06:19:40;;;;;;;0.60;0.60;;;;;;;;;;5070478;28;20242;-79
2023/01/13 06:22:16;;;;;;;0.60;0.60;;;;;;;;;;5070075;28;20200;-79
2023/01/13 06:24:41;;;;;;;0.97;0.50;;;;;;;;;;5061473;28;20183;-79
2023/01/13 06:27:07;;;;;;;0.40;0.40;;;;;;;;;;5066336;28;20174;-79
2023/01/13 06:29:33;;;;;;;0.73;0.40;;;;;;;;;;5064598;28;20182;-79
2023/01/13 06:31:59;;;;;;;0.53;0.53;;;;;;;;;;5066666;28;20239;-79
2023/01/13 06:34:25;;;;;;;0.30;0.30;;;;;;;;;;5061227;28;20217;-79
2023/01/13 06:36:52;;;;;;;0.30;0.30;;;;;;;;;;5076043;28;20224;-79
2023/01/13 06:39:19;;;;;;;0.73;0.53;;;;;;;;;;5064439;28;21499;-79
2023/01/13 06:44:31;;;;;;;0.27;0.27;;;;;;;;;;5062333;28;20237;-78
2023/01/13 06:46:56;;;;;;;0.43;0.43;;;;;;;;;;5060882;28;20166;-79
2023/01/13 06:49:21;;;;;;;0.30;0.20;;;;;;;;;;5066787;28;20175;-79
2023/01/13 06:51:46;;;;;;;0.77;0.50;;;;;;;;;;5068904;28;20177;-79
2023/01/13 06:54:11;;;;;;;0.30;0.30;;;;;;;;;;5069504;28;20183;-78
2023/01/13 06:56:36;;;;;;;0.60;0.50;;;;;;;;;;5067808;28;20179;-79
2023/01/13 06:59:02;;;;;;;0.83;0.50;;;;;;;;;;5078211;28;20181;-79
2023/01/13 07:01:27;;;;;;;0.40;0.40;;;;;;;;;;5061854;28;20182;-78
2023/01/13 07:03:52;;;;;;;0.40;0.40;;;;;;;;;;5058646;28;20207;-79
2023/01/13 07:06:17;;;;;;;0.40;0.37;;;;;;;;;;5067953;28;20269;-79
2023/01/13 07:08:42;;;;;;;0.20;0.20;;;;;;;;;;5075030;28;20180;-78
2023/01/13 07:11:08;;;;;;;0.30;0.30;;;;;;;;;;5072055;28;20174;-79
2023/01/13 07:16:17;;;;;;;0.20;0.20;;;;;;;;;;5070682;28;20234;-79
2023/01/13 07:18:42;;;;;;;0.30;0.30;;;;;;;;;;5065602;28;20193;-79
2023/01/13 07:21:08;;;;;;;0.40;0.30;;;;;;;;;;5067044;28;20173;-79
2023/01/13 07:23:34;;;;;;;0.80;0.80;;;;;;;;;;5066795;28;20203;-78
2023/01/13 07:26:00;;;;;;;0.30;0.30;;;;;;;;;;5062709;28;20172;-79
2023/01/13 07:28:26;;;;;;;0.17;0.17;;;;;;;;;;5065722;28;20239;-78
2023/01/13 07:30:51;;;;;;;0.77;0.33;;;;;;;;;;5058868;28;20208;-79
2023/01/13 07:33:19;;;;;;;0.40;0.40;;;;;;;;;;5065346;28;20206;-78
2023/01/13 07:35:45;;;;;;;0.30;0.30;;;;;;;;;;5068229;28;20251;-78
2023/01/13 07:38:10;;;;;;;0.37;0.37;;;;;;;;;;5057695;28;20187;-79
2023/01/13 07:40:36;;;;;;;0.40;0.40;;;;;;;;;;5060303;28;20182;-79
2023/01/13 07:45:45;;;;;;;0.30;0.30;;;;;;;;;;5064740;28;20228;-79
2023/01/13 07:48:10;;;;;;;0.90;0.90;;;;;;;;;;5062433;28;20191;-79
2023/01/13 07:50:35;;;;;;;0.50;0.50;;;;;;;;;;5066358;28;20229;-79
2023/01/13 07:53:00;;;;;;;0.63;0.63;;;;;;;;;;5068563;28;20180;-79
2023/01/13 07:55:26;;;;;;;0.60;0.50;;;;;;;;;;5055057;28;20177;-78
2023/01/13 07:57:51;;;;;;;1.07;1.07;;;;;;;;;;5079219;28;20205;-78
2023/01/13 08:00:16;;;;;;;0.80;0.80;;;;;;;;;;5063134;28;20178;-79
2023/01/13 08:02:41;;;;;;;0.73;0.73;;;;;;;;;;5068618;28;20224;-79
2023/01/13 08:05:07;;;;;;;0.30;0.30;;;;;;;;;;5072992;28;20228;-79
2023/01/13 08:07:32;;;;;;;1.10;0.63;;;;;;;;;;5062997;28;20201;-79
2023/01/13 08:09:58;;;;;;;1.10;0.60;;;;;;;;;;5063836;28;20179;-79
2023/01/13 08:15:08;;;;;;;0.33;0.33;;;;;;;;;;5062412;28;20279;-79
2023/01/13 08:17:34;;;;;;;1.27;0.50;;;;;;;;;;5060253;28;20184;-79
2023/01/13 08:19:59;;;;;;;0.30;0.30;;;;;;;;;;5064404;28;20268;-79
2023/01/13 08:22:24;;;;;;;0.67;0.47;;;;;;;;;;5068465;28;20258;-79
2023/01/13 08:24:49;;;;;;;0.23;0.23;;;;;;;;;;5074399;28;20204;-78
2023/01/13 08:27:15;;;;;;;0.40;0.40;;;;;;;;;;5062273;28;20173;-79
2023/01/13 08:29:40;;;;;;;0.37;0.37;;;;;;;;;;5062544;28;20259;-79
2023/01/13 08:32:05;;;;;;;1.60;0.30;;;;;;;;;;5068078;28;20197;-78
2023/01/13 08:34:30;;;;;;;0.40;0.40;;;;;;;;;;5064922;28;20174;-78
2023/01/13 08:36:56;;;;;;;0.23;0.23;;;;;;;;;;5075470;28;20233;-78
2023/01/13 08:39:22;;;;;;;0.50;0.50;;;;;;;;;;5063782;28;20174;-78
2023/01/13 08:41:53;;;;;;;0.70;0.57;;;;;;;;;;5074905;28;20174;-78
2023/01/13 08:44:19;;;;;;;1.77;1.60;;;;;;;;;;5066654;28;20199;-78
2023/01/13 08:46:44;;;;;;;0.70;0.57;;;;;;;;;;5062680;28;20204;-78
2023/01/13 08:49:09;;;;;;;0.40;0.40;;;;;;;;;;5073402;28;20176;-80
2023/01/13 08:51:34;;;;;;;0.73;0.30;;;;;;;;;;5065260;28;20299;-79
2023/01/13 08:54:00;;;;;;;0.40;0.40;;;;;;;;;;5068388;28;20184;-79
2023/01/13 08:56:27;;;;;;;0.40;0.30;;;;;;;;;;5073637;28;20185;-79
2023/01/13 08:58:56;;;;;;;0.33;0.33;;;;;;;;;;5078675;28;20182;-79
2023/01/13 09:01:22;;;;;;;1.30;0.40;;;;;;;;;;5073638;28;20185;-80
2023/01/13 09:03:47;;;;;;;0.57;0.57;;;;;;;;;;5078699;28;20207;-80
2023/01/13 09:06:12;;;;;;;0.30;0.30;;;;;;;;;;5069726;28;20184;-80
2023/01/13 09:08:37;;;;;;;0.50;0.50;;;;;;;;;;5075136;28;20177;-80
2023/01/13 09:13:10;;;;;;;1.80;0.43;;;;;;;;;;5066777;28;20180;-80
2023/01/13 09:13:48;;;;;;;0.53;0.53;;;;;;;;;;5065301;28;20248;-80
2023/01/13 09:16:13;;;;;;;0.60;0.60;;;;;;;;;;5070469;28;20215;-80
2023/01/13 09:18:38;;;;;;;1.40;1.00;;;;;;;;;;5090943;28;20213;-80
2023/01/13 09:21:03;;;;;;;0.77;0.70;;;;;;;;;;5061074;28;20172;-79
2023/01/13 09:23:28;;;;;;;1.17;0.80;;;;;;;;;;5078728;28;20220;-80
2023/01/13 09:25:54;;;;;;;3.30;0.90;;;;;;;;;;5062235;28;20311;-80
2023/01/13 09:28:19;;;;;;;0.87;0.87;;;;;;;;;;5069350;28;20190;-80
2023/01/13 09:30:44;;;;;;;1.57;1.47;;;;;;;;;;5066446;28;20177;-80
2023/01/13 09:35:57;;;;;;;0.53;0.53;;;;;;;;;;5070481;28;20281;-80
2023/01/13 09:38:23;;;;;;;2.57;1.27;;;;;;;;;;5070937;28;20180;-76
2023/01/13 09:40:48;;;;;;;1.73;1.47;;;;;;;;;;5065113;28;20185;-78
2023/01/13 09:49:03;;;;;;;1.60;1.50;;;;;;;;;;5064901;28;20232;-78
2023/01/13 09:51:35;;;;;;;2.07;1.90;;;;;;;;;;5069592;28;20276;-78
2023/01/13 09:54:15;;;;;;;1.93;1.60;;;;;;;;;;5072374;28;20181;-78
2023/01/13 09:56:41;;;;;;;1.43;1.00;;;;;;;;;;5065225;28;20399;-78
2023/01/13 09:59:10;;;;;;;1.67;1.23;;;;;;;;;;5064166;28;20284;-78
2023/01/13 10:01:41;;;;;;;2.87;2.37;;;;;;;;;;5076135;28;20309;-78
2023/01/13 10:04:10;;;;;;;0.93;0.60;;;;;;;;;;5076212;28;20300;-78
2023/01/13 10:06:37;;;;;;;2.77;1.43;;;;;;;;;;5071469;28;20174;-77
2023/01/13 10:09:02;;;;;;;1.57;1.37;;;;;;;;;;5075218;28;20225;-78
2023/01/13 10:14:25;;;;;;;2.13;1.50;;;;;;;;;;5047233;28;20225;-78
2023/01/13 10:16:56;;;;;;;0.90;0.90;;;;;;;;;;5067354;28;20200;-78
2023/01/13 10:19:24;;;;;;;2.57;0.83;;;;;;;;;;5070083;28;20180;-78
2023/01/13 10:22:04;;;;;;;1.23;0.80;;;;;;;;;;5075163;28;20203;-78
2023/01/13 10:24:48;;;;;;;1.47;0.87;;;;;;;;;;5074634;28;20186;-78
2023/01/13 10:27:19;;;;;;;1.23;0.90;;;;;;;;;;5065030;28;20173;-78
2023/01/13 10:29:44;;;;;;;0.87;0.87;;;;;;;;;;5066192;28;20208;-78
2023/01/13 10:32:09;;;;;;;1.73;0.87;;;;;;;;;;5074495;28;20215;-78
2023/01/13 10:34:47;;;;;;;1.20;1.10;;;;;;;;;;5074337;28;20612;-78
2023/01/13 10:37:18;;;;;;;1.10;0.77;;;;;;;;;;5077979;28;20231;-78
2023/01/13 10:39:44;;;;;;;0.80;0.80;;;;;;;;;;5079226;28;20228;-77
2023/01/13 10:42:16;;;;;;;3.53;0.70;;;;;;;;;;5070860;28;20260;-78
2023/01/13 10:45:02;;;;;;;4.83;2.20;;;;;;;;;;5071062;28;20178;-78
2023/01/13 10:47:28;;;;;;;1.07;0.87;;;;;;;;;;5068102;28;20172;-77
2023/01/13 10:49:59;;;;;;;2.57;1.97;;;;;;;;;;5065420;28;20180;-78
2023/01/13 10:52:29;;;;;;;5.03;2.53;;;;;;;;;;5071810;28;20211;-78
2023/01/13 10:54:54;;;;;;;6.20;3.07;;;;;;;;;;5062414;28;20184;-78
2023/01/13 10:57:21;;;;;;;6.97;2.43;;;;;;;;;;5077977;28;20236;-78
2023/01/13 10:59:47;;;;;;;2.43;1.20;;;;;;;;;;5071605;28;20188;-78
2023/01/13 11:02:15;;;;;;;2.27;0.77;;;;;;;;;;5063401;28;20216;-78
2023/01/13 11:04:52;;;;;;;2.13;1.10;;;;;;;;;;5062423;28;20188;-78
2023/01/13 11:07:36;;;;;;;1.30;0.87;;;;;;;;;;5064133;28;20175;-77
2023/01/13 11:10:08;;;;;;;1.87;1.20;;;;;;;;;;5077954;28;20229;-78
2023/01/13 11:12:34;;;;;;;4.20;1.30;;;;;;;;;;5060105;28;20192;-77
2023/01/13 11:15:00;;;;;;;3.03;1.10;;;;;;;;;;5076105;28;20176;-78
2023/01/13 11:17:44;;;;;;;2.20;1.20;;;;;;;;;;5074447;28;20223;-78
2023/01/13 11:20:19;;;;;;;1.83;0.93;;;;;;;;;;5062402;28;20210;-76
2023/01/13 11:22:46;;;;;;;5.53;2.90;;;;;;;;;;5067822;28;20202;-77
2023/01/13 11:25:18;;;;;;;5.27;2.03;;;;;;;;;;5070070;28;20242;-78
2023/01/13 11:27:51;;;;;;;2.20;1.17;;;;;;;;;;5066219;28;20195;-78
2023/01/13 11:30:21;;;;;;;2.70;1.10;;;;;;;;;;5068979;28;20182;-78
2023/01/13 11:32:52;;;;;;;1.73;1.37;;;;;;;;;;5067591;28;20177;-78
2023/01/13 11:35:19;;;;;;;2.90;1.53;;;;;;;;;;5071475;28;20225;-77
2023/01/13 11:37:49;;;;;;;1.70;1.00;;;;;;;;;;5069548;28;20196;-78
2023/01/13 11:40:18;;;;;;;2.73;1.70;;;;;;;;;;5073360;28;20189;-78
2023/01/13 11:42:58;;;;;;;4.30;1.33;;;;;;;;;;5069358;28;20310;-78
2023/01/13 11:45:27;;;;;;;2.60;1.67;;;;;;;;;;5067837;28;20227;-78
2023/01/13 11:47:54;;;;;;;3.10;1.40;;;;;;;;;;5072352;28;20177;-78
2023/01/13 11:50:34;;;;;;;4.50;1.47;;;;;;;;;;5078567;28;20191;-78
2023/01/13 11:53:08;;;;;;;3.47;1.67;;;;;;;;;;5075659;28;20201;-78
2023/01/13 11:55:43;;;;;;;2.00;1.23;;;;;;;;;;5091811;28;20221;-78
2023/01/13 11:58:08;;;;;;;1.60;1.10;;;;;;;;;;5073923;28;20214;-77
2023/01/13 12:00:42;;;;;;;3.50;1.40;;;;;;;;;;5069117;28;20186;-78
2023/01/13 12:03:20;;;;;;;4.97;1.77;;;;;;;;;;5082827;28;20275;-78
2023/01/13 12:05:58;;;;;;;1.63;0.97;;;;;;;;;;5078436;28;20174;-78
2023/01/13 12:08:35;;;;;;;1.67;1.37;;;;;;;;;;5074769;28;20453;-78
2023/01/13 12:11:03;;;;;;;4.67;1.30;;;;;;;;;;5068142;28;20187;-77
2023/01/13 12:13:38;;;;;;;1.97;1.63;;;;;;;;;;5086718;28;20183;-77
2023/01/13 12:16:22;;;;;;;2.90;1.37;;;;;;;;;;5082659;28;20207;-78
2023/01/13 12:18:59;;;;;;;3.33;1.97;;;;;;;;;;5066511;28;20260;-77
2023/01/13 12:21:28;;;;;;;3.00;1.13;;;;;;;;;;5083406;28;20185;-78
2023/01/13 12:24:02;;;;;;;5.57;2.17;;;;;;;;;;5069368;28;20196;-78
2023/01/13 12:26:30;;;;;;;2.83;1.80;;;;;;;;;;5067845;28;20272;-78
2023/01/13 12:28:59;;;;;;;3.67;1.67;;;;;;;;;;5066300;28;20263;-78
2023/01/13 12:31:25;;;;;;;4.10;1.67;;;;;;;;;;5087743;28;20188;-78
2023/01/13 12:33:50;;;;;;;4.57;1.63;;;;;;;;;;5069069;28;20203;-78
2023/01/13 12:36:34;;;;;;;2.23;1.40;;;;;;;;;;5069746;28;20233;-77
2023/01/13 12:38:59;;;;;;;5.47;1.80;;;;;;;;;;5073117;28;20199;-78
2023/01/13 12:41:37;;;;;;;2.63;2.07;;;;;;;;;;5083592;28;20238;-77
2023/01/13 12:44:19;;;;;;;5.03;1.83;;;;;;;;;;5065887;28;20201;-78
2023/01/13 12:46:55;;;;;;;5.73;2.17;;;;;;;;;;5072210;28;20223;-77
2023/01/13 12:49:24;;;;;;;4.53;1.97;;;;;;;;;;5070957;28;20222;-77
2023/01/13 12:51:49;;;;;;;4.53;2.10;;;;;;;;;;5072810;28;20165;-78
2023/01/13 12:54:46;;;;;;;5.00;1.70;;;;;;;;;;5070695;28;20245;-78
2023/01/13 12:57:15;;;;;;;7.30;1.80;;;;;;;;;;5076473;28;20187;-78
2023/01/13 12:59:40;;;;;;;3.67;1.90;;;;;;;;;;5068302;28;20200;-78
2023/01/13 13:02:11;;;;;;;4.23;1.70;;;;;;;;;;5070983;28;20177;-78
2023/01/13 13:04:48;;;;;;;3.10;1.57;;;;;;;;;;5066901;28;20165;-78
2023/01/13 13:07:25;;;;;;;8.47;2.17;;;;;;;;;;5075022;28;20183;-78
2023/01/13 13:09:59;;;;;;;10.73;2.57;;;;;;;;;;5073437;28;20173;-78
2023/01/13 13:15:18;;;;;;;7.90;2.03;;;;;;;;;;5072815;28;20226;-78
2023/01/13 13:17:44;;;;;;;3.07;1.40;;;;;;;;;;5074652;28;20182;-78
2023/01/13 13:20:29;;;;;;;3.13;1.87;;;;;;;;;;5067833;28;20216;-78
2023/01/13 13:22:54;;;;;;;1.93;1.27;;;;;;;;;;5066567;28;20205;-78
2023/01/13 13:25:21;;;;;;;7.70;1.97;;;;;;;;;;5072022;28;20173;-77
2023/01/13 13:27:50;;;;;;;4.53;1.80;;;;;;;;;;5066328;28;20177;-78
2023/01/13 13:30:29;;;;;;;1.53;1.03;;;;;;;;;;5072432;28;20184;-78
2023/01/13 13:32:54;;;;;;;4.33;1.53;;;;;;;;;;5069172;28;20188;-77
2023/01/13 13:35:29;;;;;;;3.07;1.17;;;;;;;;;;5071580;28;20253;-78
2023/01/13 13:49:09;;;;;;;2.00;1.03;;;;;;;;;;5064652;28;20183;-77
2023/01/13 13:51:39;;;;;;;0.90;0.90;;;;;;;;;;5075857;28;20185;-77
2023/01/13 13:54:04;;;;;;;2.63;0.90;;;;;;;;;;5068585;28;20180;-77
2023/01/13 13:56:34;;;;;;;0.83;0.63;;;;;;;;;;5068417;28;20181;-78
2023/01/13 13:58:59;;;;;;;0.83;0.73;;;;;;;;;;5062102;28;20177;-78
2023/01/13 14:01:31;;;;;;;4.10;2.90;;;;;;;;;;5067235;28;20188;-78
2023/01/13 14:04:15;;;;;;;3.50;2.20;;;;;;;;;;5064183;28;20232;-78
2023/01/13 14:06:53;;;;;;;2.97;1.77;;;;;;;;;;5066716;28;20173;-78
2023/01/13 14:09:19;;;;;;;3.17;2.10;;;;;;;;;;5072514;28;20192;-78
2023/01/13 14:11:53;;;;;;;2.23;2.00;;;;;;;;;;5065885;28;20185;-78
2023/01/13 14:14:19;;;;;;;1.13;0.80;;;;;;;;;;5066339;28;20308;-78
2023/01/13 14:16:45;;;;;;;3.33;1.13;;;;;;;;;;5071769;28;20175;-78
2023/01/13 14:19:30;;;;;;;2.23;0.73;;;;;;;;;;5065594;28;20188;-78
2023/01/13 14:21:58;;;;;;;1.17;0.70;;;;;;;;;;5063893;28;20173;-78
2023/01/13 14:24:24;;;;;;;1.57;1.27;;;;;;;;;;5072789;28;20194;-78
2023/01/13 14:26:50;;;;;;;0.70;0.70;;;;;;;;;;5070870;28;20186;-78
2023/01/13 14:29:18;;;;;;;0.80;0.70;;;;;;;;;;5071179;28;20178;-78
2023/01/13 14:31:43;;;;;;;0.87;0.70;;;;;;;;;;5075461;28;20271;-78
2023/01/13 14:34:09;;;;;;;2.17;1.30;;;;;;;;;;5073536;28;20247;-78
2023/01/13 14:36:36;;;;;;;1.97;1.20;;;;;;;;;;5069769;28;20304;-78
2023/01/13 14:39:01;;;;;;;4.33;1.60;;;;;;;;;;5070135;28;20180;-78
2023/01/13 14:41:28;;;;;;;3.17;1.50;;;;;;;;;;5067839;28;20186;-78
2023/01/13 14:43:55;;;;;;;3.47;1.40;;;;;;;;;;5071719;28;20197;-78
2023/01/13 14:46:22;;;;;;;4.73;1.60;;;;;;;;;;5071814;28;20173;-78
2023/01/13 14:48:49;;;;;;;2.40;1.53;;;;;;;;;;5070058;28;20183;-78
2023/01/13 14:51:22;;;;;;;6.03;2.00;;;;;;;;;;5075090;28;20234;-77
2023/01/13 14:53:47;;;;;;;5.87;1.40;;;;;;;;;;5072624;28;20185;-77
2023/01/13 14:56:31;;;;;;;6.40;2.27;;;;;;;;;;5070115;28;20233;-77
2023/01/13 14:59:00;;;;;;;5.27;1.70;;;;;;;;;;5064908;28;20189;-77
2023/01/13 15:01:35;;;;;;;2.90;1.77;;;;;;;;;;5075401;28;20202;-77
2023/01/13 15:04:19;;;;;;;3.47;2.07;;;;;;;;;;5067401;28;20242;-77
2023/01/13 15:06:45;;;;;;;4.33;1.47;;;;;;;;;;5063604;28;20434;-77
2023/01/13 15:09:11;;;;;;;2.03;1.40;;;;;;;;;;5064380;28;20270;-77
2023/01/13 15:11:36;;;;;;;1.27;1.17;;;;;;;;;;5077377;28;20167;-78
2023/01/13 15:14:01;;;;;;;6.63;1.63;;;;;;;;;;5060930;28;20211;-77
2023/01/13 15:16:28;;;;;;;5.00;1.50;;;;;;;;;;5069745;28;20307;-78
2023/01/13 15:18:54;;;;;;;2.67;1.50;;;;;;;;;;5068878;28;20176;-78
2023/01/13 15:21:19;;;;;;;6.50;1.73;;;;;;;;;;5062437;28;20181;-78
2023/01/13 15:23:46;;;;;;;2.83;1.50;;;;;;;;;;5072491;28;20306;-78
2023/01/13 15:26:17;;;;;;;1.93;1.20;;;;;;;;;;5055573;28;20226;-78
2023/01/13 15:28:42;;;;;;;4.33;1.67;;;;;;;;;;5064414;28;20169;-78
2023/01/13 15:31:08;;;;;;;6.50;1.70;;;;;;;;;;5067164;28;20178;-78
2023/01/13 15:33:33;;;;;;;6.03;2.17;;;;;;;;;;5063188;28;20243;-78
2023/01/13 15:35:58;;;;;;;7.90;3.33;;;;;;;;;;5067250;28;20354;-78
2023/01/13 15:38:23;;;;;;;5.13;2.63;;;;;;;;;;5067715;28;20187;-78
2023/01/13 15:40:50;;;;;;;10.20;3.53;;;;;;;;;;5065483;28;20176;-78
2023/01/13 15:48:51;;;;;;;8.20;4.10;;;;;;;;;;5064606;28;20205;-78
2023/01/13 15:51:18;;;;;;;8.37;3.83;;;;;;;;;;5065439;28;20171;-77
2023/01/13 15:53:43;;;;;;;6.03;2.60;;;;;;;;;;5072393;28;20182;-78